Simpson, Pennsylvania
Current Conditions -  °F | °C
As of 6:54 PM on Friday 19 Dec 2014 (Local Time) from KAVP Reporting Station
Overcast Overcast  
Wind Chill: 23°   Ceiling: 2500
Heat Index: 30°   Visibility: 10mi
Dew Point: 20°   Wind: 7mph
Humidity: 66%   Direction: 350°N
Pressure: 30.17"   Gusts: NA
Location:  41.5953°N, 75.5414°W
Report Text: KAVP 192354Z AUTO 35006KT 10SM OVC025 M01/M07 A3017 RMK AO2 SLP223 T10111067 11011 21011 53020
Loading
Personal Weather Stations






























Interactive Weather Map New forecast layout! Learn more

10-Day Weather Forecast

Advertisements
Track Severe Weather on mobile